TimeEDT,TemperatureF,Dew PointF,Humidity,Sea Level PressureIn,VisibilityMPH,Wind Direction,Wind SpeedMPH,Gust SpeedMPH,PrecipitationIn,Events,Conditions,WindDirDegrees,DateUTC
12:55 AM,60.1,53.1,78,30.17,10.0,Calm,Calm,-,N/A,,Mostly Cloudy,0,2013-06-21 04:55:00
1:55 AM,60.1,54.0,80,30.18,10.0,Calm,Calm,-,0.00,Rain,Light Rain,0,2013-06-21 05:55:00
2:55 AM,59.0,55.0,87,30.16,10.0,East,3.5,-,0.00,,Overcast,80,2013-06-21 06:55:00
3:55 AM,59.0,55.0,87,30.15,10.0,ENE,4.6,-,N/A,,Overcast,70,2013-06-21 07:55:00
4:55 AM,57.9,55.0,90,30.14,10.0,East,3.5,-,0.00,,Overcast,80,2013-06-21 08:55:00
5:55 AM,57.9,55.0,90,30.14,10.0,Calm,Calm,-,0.00,,Overcast,0,2013-06-21 09:55:00
6:55 AM,59.0,54.0,83,30.14,10.0,East,3.5,-,N/A,,Overcast,90,2013-06-21 10:55:00
7:55 AM,60.1,54.0,80,30.15,10.0,ESE,3.5,-,N/A,,Overcast,110,2013-06-21 11:55:00
8:55 AM,61.0,54.0,78,30.14,10.0,East,3.5,-,N/A,,Overcast,90,2013-06-21 12:55:00
9:55 AM,62.1,54.0,75,30.14,10.0,Variable,5.8,-,N/A,,Overcast,0,2013-06-21 13:55:00
10:55 AM,64.0,55.0,73,30.13,10.0,East,5.8,-,N/A,,Overcast,100,2013-06-21 14:55:00
11:55 AM,62.1,55.0,78,30.12,7.0,ESE,6.9,-,0.01,Rain,Light Rain,110,2013-06-21 15:55:00
12:55 PM,61.0,55.0,81,30.10,7.0,East,8.1,17.3,0.00,Rain,Light Rain,90,2013-06-21 16:55:00
1:55 PM,62.1,55.0,78,30.09,10.0,East,9.2,-,0.00,,Overcast,100,2013-06-21 17:55:00
2:55 PM,63.0,55.9,78,30.08,10.0,East,6.9,-,0.00,,Overcast,100,2013-06-21 18:55:00
3:55 PM,64.9,57.9,78,30.05,10.0,East,6.9,-,N/A,,Mostly Cloudy,80,2013-06-21 19:55:00
4:55 PM,63.0,57.9,84,30.06,4.0,ESE,9.2,-,0.05,Rain,Light Rain,110,2013-06-21 20:55:00
5:55 PM,62.1,57.9,86,30.01,6.0,East,12.7,23.0,0.05,Rain,Light Rain,80,2013-06-21 21:55:00
6:55 PM,62.1,57.9,86,29.98,7.0,East,13.8,20.7,0.00,Rain,Light Rain,100,2013-06-21 22:55:00
7:37 PM,61.0,57.9,90,30.00,1.8,NW,9.2,17.3,0.08,Rain,Heavy Rain,320,2013-06-21 23:37:00
7:45 PM,61.0,59.0,93,29.99,2.0,Variable,5.8,-,0.10,Rain-Thunderstorm,Thunderstorms and Rain,0,2013-06-21 23:45:00
7:51 PM,60.8,59.0,94,29.99,1.8,East,8.1,-,0.12,Rain-Thunderstorm,Thunderstorms and Rain,100,2013-06-21 23:51:00
7:55 PM,61.0,59.0,93,30.01,1.0,Variable,6.9,-,0.17,Rain-Thunderstorm,Heavy Thunderstorms and Rain,0,2013-06-21 23:55:00
7:57 PM,61.0,59.0,93,30.01,0.8,Variable,6.9,-,0.02,Rain,Heavy Rain,0,2013-06-21 23:57:00
8:19 PM,60.1,59.0,96,30.00,1.0,Variable,4.6,-,0.42,Rain,Rain,0,2013-06-22 00:19:00
8:38 PM,61.0,59.0,93,29.99,1.8,East,6.9,-,0.48,Rain,Light Rain,80,2013-06-22 00:38:00
8:55 PM,61.0,59.0,93,29.98,1.2,East,9.2,-,0.53,Rain,Heavy Rain,80,2013-06-22 00:55:00
9:24 PM,60.1,59.0,96,29.99,1.0,NE,5.8,-,0.37,Rain,Heavy Rain,50,2013-06-22 01:24:00
9:28 PM,60.1,59.0,96,29.99,0.8,Variable,4.6,-,0.53,Rain,Heavy Rain,0,2013-06-22 01:28:00
9:37 PM,61.0,59.0,93,30.00,2.5,Variable,3.5,-,0.61,Rain,Light Rain,0,2013-06-22 01:37:00
9:44 PM,61.0,59.0,93,29.99,6.0,East,10.4,17.3,0.61,,Overcast,80,2013-06-22 01:44:00
9:55 PM,61.0,59.0,93,29.98,5.0,East,6.9,16.1,0.61,,Overcast,80,2013-06-22 01:55:00
10:02 PM,61.0,59.0,93,29.98,5.0,East,8.1,-,N/A,,Overcast,90,2013-06-22 02:02:00
10:55 PM,61.0,59.0,93,29.98,5.0,East,8.1,-,N/A,,Overcast,80,2013-06-22 02:55:00
11:55 PM,61.0,60.1,97,29.96,3.0,East,4.6,-,0.01,,Overcast,100,2013-06-22 03:55:00